createdAt,value
2018-08-17T00:02:28.274Z,81.60
2018-08-17T00:04:58.551Z,81.50
2018-08-17T00:07:28.817Z,81.60
2018-08-17T00:09:59.281Z,81.60
2018-08-17T00:12:29.563Z,82.10
2018-08-17T00:14:59.849Z,82.40
2018-08-17T00:17:30.173Z,82.40
2018-08-17T00:20:00.480Z,81.90
2018-08-17T00:22:30.780Z,81.90
2018-08-17T00:25:01.191Z,81.80
2018-08-17T00:27:31.438Z,81.80
2018-08-17T00:30:01.714Z,81.70
2018-08-17T00:32:32.040Z,82.10
2018-08-17T00:35:02.329Z,82.20
2018-08-17T00:37:32.857Z,82.60
2018-08-17T00:40:03.374Z,83.00
2018-08-17T00:42:33.728Z,83.00
2018-08-17T00:45:04.525Z,82.70
2018-08-17T00:47:34.864Z,82.20
2018-08-17T00:50:06.129Z,82.00
2018-08-17T00:52:36.510Z,82.50
2018-08-17T00:55:07.297Z,82.40
2018-08-17T00:57:37.582Z,82.30
2018-08-17T01:00:08.424Z,82.30
2018-08-17T01:02:38.741Z,82.70
2018-08-17T01:05:09.180Z,82.60
2018-08-17T01:07:39.516Z,82.50
2018-08-17T01:10:09.774Z,83.10
2018-08-17T01:12:40.039Z,83.90
2018-08-17T01:15:10.401Z,83.60
2018-08-17T01:17:41.029Z,84.00
2018-08-17T01:20:12.937Z,84.50
2018-08-17T01:22:43.304Z,84.60
2018-08-17T01:25:13.615Z,84.50
2018-08-17T01:27:43.898Z,84.30
2018-08-17T01:30:14.287Z,84.40
2018-08-17T01:32:44.580Z,84.40
2018-08-17T01:35:14.869Z,84.00
2018-08-17T01:37:45.192Z,84.20
2018-08-17T01:40:15.523Z,84.00
2018-08-17T01:42:46.104Z,84.60
2018-08-17T01:45:16.469Z,85.00
2018-08-17T01:47:46.720Z,85.60
2018-08-17T01:50:17.102Z,86.30
2018-08-17T01:52:47.369Z,87.10
2018-08-17T01:55:17.661Z,87.20
2018-08-17T01:57:47.914Z,88.00
2018-08-17T02:00:18.420Z,88.10
2018-08-17T02:02:48.676Z,88.20
2018-08-17T02:05:18.944Z,88.70
2018-08-17T02:07:49.248Z,89.20
2018-08-17T02:10:19.549Z,89.00
2018-08-17T02:12:49.870Z,89.70
2018-08-17T02:15:20.252Z,90.10
2018-08-17T02:17:50.501Z,90.40
2018-08-17T02:20:20.809Z,90.20
2018-08-17T02:22:51.066Z,90.20
2018-08-17T02:25:21.352Z,90.30
2018-08-17T02:27:51.664Z,90.30
2018-08-17T02:30:22.060Z,90.20
2018-08-17T02:32:52.286Z,90.20
2018-08-17T02:35:22.606Z,90.10
2018-08-17T02:37:52.922Z,90.20
2018-08-17T02:40:23.277Z,90.20
2018-08-17T02:42:53.571Z,90.10
2018-08-17T02:45:23.842Z,90.20
2018-08-17T02:47:54.066Z,90.50
2018-08-17T02:50:24.344Z,90.50
2018-08-17T02:52:54.612Z,90.50
2018-08-17T02:55:25.142Z,90.60
2018-08-17T02:57:55.396Z,90.70
2018-08-17T03:00:25.832Z,90.80
2018-08-17T03:02:56.067Z,90.90
2018-08-17T03:05:26.401Z,90.90
2018-08-17T03:07:56.670Z,91.00
2018-08-17T03:10:27.105Z,91.00
2018-08-17T03:12:57.403Z,90.70
2018-08-17T03:15:27.697Z,90.40
2018-08-17T03:17:58.077Z,90.50
2018-08-17T03:20:28.336Z,90.50
2018-08-17T03:22:58.634Z,90.50
2018-08-17T03:25:29.587Z,90.50
2018-08-17T03:27:59.882Z,90.30
2018-08-17T03:30:30.221Z,90.60
2018-08-17T03:33:00.505Z,90.80
2018-08-17T03:35:30.764Z,91.00
2018-08-17T03:38:01.365Z,91.30
2018-08-17T03:40:31.686Z,91.40
2018-08-17T03:43:01.931Z,91.20
2018-08-17T03:45:32.418Z,91.10
2018-08-17T03:48:02.695Z,91.00
2018-08-17T03:50:32.961Z,91.00
2018-08-17T03:53:03.194Z,91.20
2018-08-17T03:55:33.540Z,91.30
2018-08-17T03:58:03.860Z,91.30
2018-08-17T04:00:34.708Z,91.50
2018-08-17T04:03:05.052Z,91.50
2018-08-17T04:05:35.434Z,91.40
2018-08-17T04:08:05.727Z,91.40
2018-08-17T04:10:36.088Z,91.60
2018-08-17T04:13:06.877Z,91.70
2018-08-17T04:15:39.382Z,91.60
2018-08-17T04:18:10.303Z,91.60
2018-08-17T04:20:40.658Z,91.60
2018-08-17T04:23:11.005Z,91.60
2018-08-17T04:25:41.420Z,91.60
2018-08-17T04:28:11.753Z,91.70
2018-08-17T04:30:42.047Z,91.50
2018-08-17T04:33:12.358Z,91.60
2018-08-17T04:35:42.657Z,91.50
2018-08-17T04:38:13.015Z,91.90
2018-08-17T04:40:43.383Z,91.70
2018-08-17T04:43:13.680Z,91.50
2018-08-17T04:45:44.001Z,91.30
2018-08-17T04:48:14.273Z,91.60
2018-08-17T04:50:44.578Z,91.70
2018-08-17T04:53:14.808Z,91.50
2018-08-17T04:55:45.216Z,91.30
2018-08-17T04:58:15.573Z,91.10
2018-08-17T05:00:46.397Z,91.30
2018-08-17T05:03:16.695Z,91.10
2018-08-17T05:05:47.140Z,91.00
2018-08-17T05:08:17.417Z,90.90
2018-08-17T05:10:47.843Z,91.20
2018-08-17T05:13:18.144Z,91.30
2018-08-17T05:15:48.517Z,91.40
2018-08-17T05:18:18.854Z,91.20
2018-08-17T05:20:49.281Z,91.10
2018-08-17T05:23:19.617Z,90.90
2018-08-17T05:25:49.931Z,90.70
2018-08-17T05:28:20.235Z,90.50
2018-08-17T05:30:50.631Z,90.30
2018-08-17T05:33:21.201Z,90.20
2018-08-17T05:35:51.789Z,90.70
2018-08-17T05:38:22.005Z,90.50
2018-08-17T05:40:52.351Z,90.10
2018-08-17T05:43:22.717Z,89.60
2018-08-17T05:45:53.048Z,89.10
2018-08-17T05:48:23.390Z,88.80
2018-08-17T05:50:54.709Z,88.10
2018-08-17T05:53:25.028Z,87.70
2018-08-17T05:55:56.133Z,87.10
2018-08-17T05:58:26.417Z,86.70
2018-08-17T06:00:56.801Z,86.40
2018-08-17T06:03:27.121Z,86.20
2018-08-17T06:05:57.481Z,85.90
2018-08-17T06:08:27.768Z,85.90
2018-08-17T06:10:58.112Z,85.70
2018-08-17T06:13:28.461Z,85.60
2018-08-17T06:15:58.781Z,85.70
2018-08-17T06:18:29.124Z,85.60
2018-08-17T06:20:59.450Z,85.40
2018-08-17T06:23:29.770Z,85.10
2018-08-17T06:26:00.208Z,85.30
2018-08-17T06:28:30.585Z,85.30
2018-08-17T06:31:01.040Z,85.10
2018-08-17T06:33:31.381Z,85.00
2018-08-17T06:36:02.061Z,84.50
2018-08-17T06:38:32.437Z,84.20
2018-08-17T06:41:02.731Z,84.00
2018-08-17T06:43:33.074Z,83.90
2018-08-17T06:46:03.750Z,83.50
2018-08-17T06:48:34.440Z,83.40
2018-08-17T06:51:04.844Z,82.60
2018-08-17T06:53:35.160Z,82.10
2018-08-17T06:56:05.536Z,81.40
2018-08-17T06:58:35.925Z,81.10
2018-08-17T07:01:06.694Z,80.60
2018-08-17T07:03:37.032Z,80.20
2018-08-17T07:06:07.444Z,80.30
2018-08-17T07:08:37.774Z,79.50
2018-08-17T07:11:08.192Z,78.60
2018-08-17T07:13:38.551Z,78.20
2018-08-17T07:16:08.874Z,78.00
2018-08-17T07:21:17.952Z,77.90
2018-08-17T07:23:49.683Z,77.20
2018-08-17T07:26:22.792Z,76.40
2018-08-17T07:28:53.083Z,75.50
2018-08-17T07:31:23.468Z,76.00
2018-08-17T07:33:54.366Z,74.90
2018-08-17T07:36:24.765Z,74.10
2018-08-17T07:38:55.078Z,73.60
2018-08-17T07:41:25.552Z,73.40
2018-08-17T07:43:55.913Z,72.70
2018-08-17T07:46:26.196Z,73.00
2018-08-17T07:48:56.529Z,72.30
2018-08-17T07:51:26.782Z,72.10
2018-08-17T07:53:57.117Z,71.80
2018-08-17T07:56:28.278Z,70.90
2018-08-17T07:58:58.659Z,71.20
2018-08-17T08:01:28.953Z,71.00
2018-08-17T08:04:00.098Z,70.20
2018-08-17T08:06:30.398Z,70.00
2018-08-17T08:09:00.682Z,69.20
2018-08-17T08:11:30.966Z,69.40
2018-08-17T08:14:01.618Z,68.90
2018-08-17T08:16:31.952Z,67.60
2018-08-17T08:19:02.305Z,68.10
2018-08-17T08:21:32.647Z,66.60
2018-08-17T08:24:02.923Z,66.10
2018-08-17T08:26:33.232Z,66.30
2018-08-17T08:29:03.551Z,66.30
2018-08-17T08:31:33.828Z,66.80
2018-08-17T08:34:04.169Z,67.30
2018-08-17T08:36:34.549Z,66.30
2018-08-17T08:39:07.968Z,65.00
2018-08-17T08:41:38.361Z,64.70
2018-08-17T08:44:08.681Z,64.70
2018-08-17T08:46:39.356Z,64.60
2018-08-17T08:49:09.667Z,64.90
2018-08-17T08:51:40.008Z,65.00
2018-08-17T08:54:10.302Z,62.80
2018-08-17T08:56:40.665Z,62.80
2018-08-17T08:59:11.020Z,61.60
2018-08-17T09:01:41.324Z,61.20
2018-08-17T09:04:11.657Z,61.20
2018-08-17T09:06:42.020Z,60.30
2018-08-17T09:09:12.380Z,60.30
2018-08-17T09:11:42.770Z,60.60
2018-08-17T09:14:13.073Z,59.90
2018-08-17T09:16:43.469Z,60.00
2018-08-17T09:19:13.770Z,59.60
2018-08-17T09:21:44.109Z,58.90
2018-08-17T09:24:14.458Z,58.70
2018-08-17T09:26:44.786Z,57.10
2018-08-17T09:29:15.191Z,56.80
2018-08-17T09:31:45.529Z,56.20
2018-08-17T09:34:15.839Z,56.20
2018-08-17T09:36:46.127Z,55.40
2018-08-17T09:39:16.445Z,54.60
2018-08-17T09:41:47.104Z,53.80
2018-08-17T09:44:17.412Z,53.30
2018-08-17T09:46:47.843Z,53.10
2018-08-17T09:49:18.117Z,51.50
2018-08-17T09:51:49.155Z,51.00
2018-08-17T09:54:19.456Z,51.20
2018-08-17T09:56:49.739Z,51.40
2018-08-17T09:59:20.254Z,50.40
2018-08-17T10:01:55.793Z,49.10
2018-08-17T10:04:31.221Z,47.60
2018-08-17T10:07:06.712Z,47.20
2018-08-17T10:09:42.175Z,48.40
2018-08-17T10:12:12.537Z,47.90
2018-08-17T10:14:42.836Z,47.20
2018-08-17T10:17:13.570Z,46.30
2018-08-17T10:19:43.829Z,46.30
2018-08-17T10:22:14.111Z,46.00
2018-08-17T10:24:45.379Z,44.70
2018-08-17T10:27:15.727Z,44.40
2018-08-17T10:29:46.076Z,44.00
2018-08-17T10:32:16.737Z,43.20
2018-08-17T10:34:47.094Z,41.90
2018-08-17T10:37:17.855Z,40.20
2018-08-17T10:39:48.085Z,42.00
2018-08-17T10:42:19.210Z,43.40
2018-08-17T10:44:49.439Z,44.50
2018-08-17T10:47:19.786Z,44.30
2018-08-17T10:49:50.547Z,44.70
2018-08-17T10:52:22.032Z,45.50
2018-08-17T10:54:52.360Z,47.10
2018-08-17T10:57:23.308Z,48.20
2018-08-17T10:59:53.625Z,48.50
2018-08-17T11:02:23.918Z,49.80
2018-08-17T11:04:55.353Z,51.50
2018-08-17T11:07:29.652Z,53.60
2018-08-17T11:09:59.990Z,55.60
2018-08-17T11:12:30.282Z,58.50
2018-08-17T11:15:01.021Z,60.70
2018-08-17T11:17:31.402Z,63.00
2018-08-17T11:20:01.788Z,65.20
2018-08-17T11:22:32.480Z,67.00
2018-08-17T11:25:04.572Z,69.30
2018-08-17T11:27:35.525Z,71.40
2018-08-17T11:30:10.888Z,72.90
2018-08-17T11:32:41.704Z,74.10
2018-08-17T11:35:12.017Z,75.90
2018-08-17T11:37:42.345Z,77.00
2018-08-17T11:40:13.864Z,78.20
2018-08-17T11:42:47.355Z,78.60
2018-08-17T11:45:20.203Z,79.10
2018-08-17T11:47:51.013Z,79.60
2018-08-17T11:50:22.898Z,80.60
2018-08-17T11:52:56.500Z,81.10
2018-08-17T11:55:29.230Z,81.30
2018-08-17T11:57:59.944Z,80.90
2018-08-17T12:00:36.822Z,80.90
2018-08-17T12:03:09.027Z,81.10
2018-08-17T12:05:39.402Z,80.80
2018-08-17T12:08:09.794Z,79.80
2018-08-17T12:10:40.134Z,78.90
2018-08-17T12:13:15.508Z,77.90
2018-08-17T12:15:49.893Z,79.50
2018-08-17T12:18:20.837Z,75.60
2018-08-17T12:20:51.298Z,66.50
2018-08-17T12:23:21.691Z,63.70
2018-08-17T12:25:57.922Z,59.00
2018-08-17T12:28:29.525Z,55.20
2018-08-17T12:31:00.477Z,51.60
2018-08-17T12:33:30.865Z,52.10
2018-08-17T12:36:01.268Z,51.60
2018-08-17T12:38:31.605Z,51.40
2018-08-17T12:41:01.989Z,51.70
2018-08-17T12:43:34.861Z,52.20
2018-08-17T12:46:05.251Z,52.10
2018-08-17T12:48:35.600Z,50.00
2018-08-17T12:51:07.020Z,51.00
2018-08-17T12:53:37.356Z,48.00
2018-08-17T12:56:07.717Z,47.60
2018-08-17T12:58:38.015Z,49.00
2018-08-17T13:01:08.344Z,48.70
2018-08-17T13:03:38.676Z,44.90
2018-08-17T13:06:09.009Z,40.90
2018-08-17T13:08:39.322Z,39.50
2018-08-17T13:11:09.745Z,38.70
2018-08-17T13:13:40.119Z,39.50
2018-08-17T13:16:11.483Z,40.00
2018-08-17T13:18:42.145Z,41.80
2018-08-17T13:21:12.551Z,42.00
2018-08-17T13:23:42.869Z,41.70
2018-08-17T13:26:13.224Z,41.50
2018-08-17T13:28:44.266Z,42.30
2018-08-17T13:31:15.256Z,42.70
2018-08-17T13:33:45.593Z,42.10
2018-08-17T13:36:15.976Z,42.40
2018-08-17T13:38:46.350Z,42.20
2018-08-17T13:41:16.828Z,42.40
2018-08-17T13:43:47.149Z,41.60
2018-08-17T13:46:17.545Z,40.70
2018-08-17T13:48:48.282Z,40.70
2018-08-17T13:51:18.520Z,40.60
2018-08-17T13:53:48.937Z,40.70
2018-08-17T13:56:19.236Z,40.50
2018-08-17T13:58:49.499Z,39.50
2018-08-17T14:01:19.889Z,39.10
2018-08-17T14:03:51.175Z,38.60
2018-08-17T14:06:21.574Z,38.30
2018-08-17T14:08:51.922Z,38.30
2018-08-17T14:11:22.629Z,37.30
2018-08-17T14:13:52.949Z,36.50
2018-08-17T14:16:23.371Z,36.80
2018-08-17T14:18:53.898Z,37.30
2018-08-17T14:21:24.264Z,37.90
2018-08-17T14:23:54.601Z,37.50
2018-08-17T14:26:24.903Z,36.90
2018-08-17T14:28:55.254Z,37.70
2018-08-17T14:31:25.569Z,37.20
2018-08-17T14:33:55.964Z,38.00
2018-08-17T14:36:26.287Z,38.00
2018-08-17T14:38:56.660Z,39.00
2018-08-17T14:41:27.004Z,37.80
2018-08-17T14:43:57.289Z,38.30
2018-08-17T14:46:28.478Z,38.20
2018-08-17T14:48:58.720Z,37.50
2018-08-17T14:51:29.518Z,36.40
2018-08-17T14:53:59.866Z,36.30
2018-08-17T14:56:30.219Z,36.20
2018-08-17T14:59:00.550Z,37.00
2018-08-17T15:01:30.994Z,39.10
2018-08-17T15:04:01.346Z,40.00
2018-08-17T15:06:31.751Z,40.50
2018-08-17T15:09:02.131Z,40.60
2018-08-17T15:11:32.833Z,41.00
2018-08-17T15:14:03.317Z,41.60
2018-08-17T15:16:34.311Z,41.70
2018-08-17T15:19:04.665Z,42.10
2018-08-17T15:21:35.011Z,42.70
2018-08-17T15:24:05.457Z,43.10
2018-08-17T15:26:35.839Z,43.20
2018-08-17T15:29:06.382Z,43.10
2018-08-17T15:31:36.770Z,43.90
2018-08-17T15:34:07.210Z,45.80
2018-08-17T15:36:37.556Z,46.90
2018-08-17T15:39:12.553Z,47.40
2018-08-17T15:41:44.770Z,49.40
2018-08-17T15:44:20.147Z,51.80
2018-08-17T15:46:50.489Z,53.20
2018-08-17T15:49:26.071Z,53.70
2018-08-17T15:51:56.750Z,54.10
2018-08-17T15:54:27.132Z,54.70
2018-08-17T15:56:57.572Z,54.90
2018-08-17T15:59:27.992Z,55.30
2018-08-17T16:01:58.400Z,56.70
2018-08-17T16:04:28.797Z,59.90
2018-08-17T16:06:59.179Z,63.50
2018-08-17T16:09:29.471Z,65.80
2018-08-17T16:11:59.772Z,67.50
2018-08-17T16:14:30.076Z,69.70
2018-08-17T16:17:00.449Z,71.50
2018-08-17T16:19:30.723Z,73.90
2018-08-17T16:22:01.153Z,74.30
2018-08-17T16:24:31.496Z,75.10
2018-08-17T16:27:01.776Z,75.80
2018-08-17T16:29:32.073Z,77.10
2018-08-17T16:32:02.406Z,78.00
2018-08-17T16:34:32.688Z,78.90
2018-08-17T16:37:03.027Z,79.40
2018-08-17T16:39:40.052Z,79.70
2018-08-17T16:42:10.464Z,80.10
2018-08-17T16:44:40.788Z,80.50
2018-08-17T16:47:11.127Z,80.80
2018-08-17T16:49:45.850Z,81.60
2018-08-17T16:52:16.128Z,82.10
2018-08-17T16:54:46.576Z,83.10
2018-08-17T16:57:16.901Z,83.00
2018-08-17T16:59:47.343Z,83.10
2018-08-17T17:02:17.690Z,82.90
2018-08-17T17:04:48.075Z,83.50
2018-08-17T17:07:19.461Z,84.00
2018-08-17T17:09:50.201Z,83.20
2018-08-17T17:12:21.185Z,84.00
2018-08-17T17:14:51.594Z,83.50
2018-08-17T17:17:21.897Z,84.00
2018-08-17T17:19:52.274Z,84.60
2018-08-17T17:22:24.398Z,85.00
2018-08-17T17:24:54.889Z,85.40
2018-08-17T17:27:25.269Z,85.90
2018-08-17T17:29:55.634Z,86.40
2018-08-17T17:32:26.238Z,86.30
2018-08-17T17:34:56.600Z,86.40
2018-08-17T17:37:26.988Z,87.00
2018-08-17T17:39:57.324Z,87.20
2018-08-17T17:42:27.678Z,87.10
2018-08-17T17:44:58.076Z,87.70
2018-08-17T17:47:28.422Z,87.90
2018-08-17T17:49:59.167Z,88.20
2018-08-17T17:52:30.231Z,88.30
2018-08-17T17:55:00.536Z,88.50
2018-08-17T17:57:30.876Z,88.80
2018-08-17T18:00:01.176Z,89.10
2018-08-17T18:02:31.559Z,89.30
2018-08-17T18:05:01.949Z,89.40
2018-08-17T18:07:39.156Z,89.50
2018-08-17T18:10:09.538Z,89.50
2018-08-17T18:12:39.870Z,89.70
2018-08-17T18:15:10.540Z,90.30
2018-08-17T18:17:41.298Z,90.00
2018-08-17T18:20:13.944Z,90.20
2018-08-17T18:22:44.768Z,90.30
2018-08-17T18:25:17.943Z,90.30
2018-08-17T18:27:49.341Z,90.50
2018-08-17T18:30:19.687Z,90.50
2018-08-17T18:32:50.134Z,90.60
2018-08-17T18:35:20.512Z,90.60
2018-08-17T18:37:50.837Z,90.70
2018-08-17T18:40:21.299Z,90.90
2018-08-17T18:42:51.676Z,91.00
2018-08-17T18:45:21.984Z,91.10
2018-08-17T18:47:52.313Z,91.20
2018-08-17T18:50:22.671Z,91.00
2018-08-17T18:52:53.102Z,91.20
2018-08-17T18:55:23.344Z,91.20
2018-08-17T18:57:53.779Z,91.20
2018-08-17T19:00:24.149Z,91.10
2018-08-17T19:02:54.557Z,91.10
2018-08-17T19:05:25.034Z,91.00
2018-08-17T19:07:56.270Z,91.10
2018-08-17T19:10:26.751Z,91.10
2018-08-17T19:12:57.056Z,91.30
2018-08-17T19:15:27.448Z,91.30
2018-08-17T19:17:57.812Z,91.40
2018-08-17T19:20:29.389Z,91.40
2018-08-17T19:23:00.359Z,91.40
2018-08-17T19:25:30.772Z,91.40
2018-08-17T19:28:01.104Z,91.40
2018-08-17T19:30:33.675Z,91.40
2018-08-17T19:33:11.377Z,91.40
2018-08-17T19:35:47.513Z,91.40
2018-08-17T19:38:17.929Z,91.30
2018-08-17T19:40:48.304Z,91.40
2018-08-17T19:43:18.682Z,91.50
2018-08-17T19:45:49.401Z,91.50
2018-08-17T19:48:19.682Z,91.60
2018-08-17T19:50:50.105Z,91.70
2018-08-17T19:53:20.392Z,91.80
2018-08-17T19:55:50.780Z,91.90
2018-08-17T19:58:21.149Z,92.10
2018-08-17T20:00:51.493Z,92.10
2018-08-17T20:03:21.891Z,92.10
2018-08-17T20:05:52.276Z,92.20
2018-08-17T20:08:22.612Z,92.20
2018-08-17T20:10:52.991Z,92.20
2018-08-17T20:13:23.299Z,92.20
2018-08-17T20:15:53.708Z,92.00
2018-08-17T20:18:24.018Z,92.00
2018-08-17T20:20:54.453Z,92.10
2018-08-17T20:23:24.813Z,92.10
2018-08-17T20:25:55.229Z,92.20
2018-08-17T20:28:25.581Z,92.20
2018-08-17T20:30:55.977Z,92.20
2018-08-17T20:33:28.433Z,92.30
2018-08-17T20:35:58.799Z,92.40
2018-08-17T20:38:29.189Z,92.40
2018-08-17T20:41:00.928Z,92.50
2018-08-17T20:43:31.270Z,92.50
2018-08-17T20:46:01.595Z,92.50
2018-08-17T20:48:32.429Z,92.40
2018-08-17T20:51:07.908Z,92.40
2018-08-17T20:53:38.271Z,92.30
2018-08-17T20:56:08.673Z,92.20
2018-08-17T20:58:38.984Z,92.30
2018-08-17T21:01:09.316Z,92.40
2018-08-17T21:03:39.596Z,92.40
2018-08-17T21:06:10.002Z,92.40
2018-08-17T21:08:40.371Z,92.60
2018-08-17T21:11:10.696Z,92.70
2018-08-17T21:13:41.345Z,92.70
2018-08-17T21:16:11.655Z,92.70
2018-08-17T21:18:42.034Z,92.60
2018-08-17T21:21:12.421Z,92.50
2018-08-17T21:23:43.732Z,92.40
2018-08-17T21:26:14.035Z,92.40
2018-08-17T21:28:44.703Z,92.30
2018-08-17T21:31:14.923Z,92.60
2018-08-17T21:33:45.259Z,92.40
2018-08-17T21:36:16.652Z,92.40
2018-08-17T21:39:06.989Z,92.60
2018-08-17T21:41:37.296Z,92.60
2018-08-17T21:44:10.141Z,92.50
2018-08-17T21:46:43.390Z,92.60
2018-08-17T21:49:13.820Z,92.60
2018-08-17T21:51:44.134Z,92.60
2018-08-17T21:54:14.513Z,92.50
2018-08-17T21:56:44.896Z,92.50
2018-08-17T21:59:15.194Z,92.40
2018-08-17T22:01:45.505Z,92.40
2018-08-17T22:04:15.885Z,92.40
2018-08-17T22:06:47.425Z,92.30
2018-08-17T22:09:33.509Z,92.30
2018-08-17T22:12:03.879Z,92.30
2018-08-17T22:14:34.240Z,92.40
2018-08-17T22:17:04.859Z,92.40
2018-08-17T22:19:41.220Z,92.40
2018-08-17T22:22:13.053Z,92.40
2018-08-17T22:24:47.468Z,92.50
2018-08-17T22:27:19.117Z,92.40
2018-08-17T22:29:50.652Z,92.40
2018-08-17T22:32:21.387Z,92.40
2018-08-17T22:34:52.107Z,92.50
2018-08-17T22:37:22.444Z,92.60
2018-08-17T22:39:52.823Z,92.70
2018-08-17T22:42:23.691Z,92.80
2018-08-17T22:44:53.914Z,92.80
2018-08-17T22:47:28.034Z,93.00
2018-08-17T22:50:00.491Z,92.70
2018-08-17T22:52:35.147Z,92.60
2018-08-17T22:55:09.480Z,92.50
2018-08-17T22:57:39.825Z,92.60
2018-08-17T23:00:19.353Z,92.60
2018-08-17T23:02:50.995Z,92.50
2018-08-17T23:05:22.889Z,92.80
2018-08-17T23:07:53.171Z,92.40
2018-08-17T23:10:24.984Z,92.40
2018-08-17T23:12:56.181Z,92.30
2018-08-17T23:15:26.532Z,92.40
2018-08-17T23:17:58.181Z,92.50
2018-08-17T23:20:35.878Z,92.50
2018-08-17T23:23:07.114Z,92.70
2018-08-17T23:25:37.486Z,92.70
2018-08-17T23:28:07.957Z,92.60
2018-08-17T23:30:38.324Z,92.70
2018-08-17T23:33:08.660Z,92.70
2018-08-17T23:35:39.116Z,92.80
2018-08-17T23:38:09.514Z,92.90
2018-08-17T23:40:39.889Z,92.90
2018-08-17T23:43:10.266Z,92.90
2018-08-17T23:45:40.635Z,92.80
2018-08-17T23:48:11.026Z,92.80
2018-08-17T23:50:41.356Z,92.70
2018-08-17T23:53:11.721Z,92.70
2018-08-17T23:55:42.047Z,92.70
2018-08-17T23:58:12.375Z,92.60
